Detalii statie AGRICHIM STEFAN CEL MARE [0000198F]

Toti senzorii

Date Temperatura solului [C]Precipitatii [mm]Voltaj baterie [mV]HC Air temperature [C]HC Relative humidity [%]Punctul de roua [C]
medieminmaxsumaultimamedieminmaxmediemediemin
2019-08-15 20:00:00 25.9 25.7 26.2 0 6962 21.56 21.02 22.18 0 0 0
2019-08-15 21:00:00 25.6 25.5 25.8 0 6932 20.05 19.32 20.9 0 0 0
2019-08-15 22:00:00 25.2 24.9 25.5 0 6914 18.82 18.52 19.39 0 0 0
2019-08-15 23:00:00 24.8 24.7 25.1 0 6884 18.17 17.9 18.44 0 0 0
2019-08-16 00:00:00 24.5 24.2 24.7 0 6874 17.84 17.69 17.97 0 0 0
2019-08-16 01:00:00 24.2 24 24.4 0 6854 17.54 17.36 17.68 0 0 0
2019-08-16 02:00:00 23.9 23.7 24.1 0 6864 17.47 17.36 17.59 0 0 0
2019-08-16 03:00:00 23.7 23.5 23.8 0 6844 17.5 17.39 17.58 0 0 0
2019-08-16 04:00:00 23.4 23.2 23.6 0 6844 17.48 17.4 17.56 0 0 0
2019-08-16 05:00:00 23.2 23.1 23.4 0 6834 17.29 17.13 17.39 0 0 0
2019-08-16 06:00:00 23.1 23 23.2 0 6834 16.94 16.88 17.09 0 0 0
2019-08-16 07:00:00 22.9 22.9 23 0 6864 16.89 16.84 16.95 0 0 0
2019-08-16 08:00:00 22.7 22.6 22.9 0 6972 17.37 16.86 17.96 0 0 0
2019-08-16 09:00:00 22.6 22.6 22.8 0 7236 18.89 18.18 20.1 0 0 0
2019-08-16 10:00:00 22.4 22.4 22.6 0 7254 21.1 20.19 21.96 0 0 0
2019-08-16 11:00:00 22.7 22.5 22.8 0 7254 23.53 22.37 25.05 0 0 0
2019-08-16 12:00:00 22.9 22.6 23.4 0 7254 25.83 25 26.37 0 0 0
2019-08-16 13:00:00 23.8 23.1 24.3 0 7246 26.16 25.58 26.98 0 0 0
2019-08-16 14:00:00 24.6 24.3 25 0 7254 26.62 25.53 27.73 0 0 0
2019-08-16 15:00:00 25.3 25.1 25.5 0 7254 26.8 25.61 28.31 0 0 0
2019-08-16 16:00:00 25.6 25.4 25.8 0 7246 26.81 26.21 27.44 0 0 0
2019-08-16 17:00:00 25.9 25.7 26.1 0 7236 26.33 25.99 26.75 0 0 0
2019-08-16 18:00:00 25.9 25.8 26 0 7108 25.67 24.93 26.06 0 0 0
2019-08-16 19:00:00 25.7 25.6 25.9 0 7030 24.24 23.36 24.82 0 0 0
2019-08-16 20:00:00 25.4 25.2 25.8 0 6932 21.96 21.23 23.11 0 0 0
2019-08-16 21:00:00 25 24.9 25.2 0 6914 20.62 20.35 21.14 0 0 0
2019-08-16 22:00:00 24.7 24.6 24.9 0 6894 19.91 19.22 20.4 0 0 0
2019-08-16 23:00:00 24.3 24.3 24.6 0 6874 18.36 17.9 18.93 0 0 0
2019-08-17 00:00:00 23.9 23.8 24.1 0 6864 17.73 17.55 17.84 0 0 0
2019-08-17 01:00:00 23.6 23.6 23.9 0 6854 17.84 17.64 18 0 0 0
2019-08-17 02:00:00 23.4 23.4 23.6 0 6854 17.75 17.54 17.95 0 0 0
2019-08-17 03:00:00 23.2 23.1 23.3 0 6834 17.52 17.33 17.68 0 0 0
2019-08-17 04:00:00 22.9 22.8 23.2 0 6834 17.59 17.35 17.69 0 0 0
2019-08-17 05:00:00 22.7 22.7 22.9 0 6816 17.89 17.67 18.13 0 0 0
2019-08-17 06:00:00 22.6 22.5 22.8 0 6826 17.46 17.3 17.59 0 0 0
2019-08-17 07:00:00 22.4 22.3 22.7 0 6874 17.61 17.14 18.8 0 0 0
2019-08-17 08:00:00 22.3 22.2 22.5 0 6922 20.09 19.04 20.88 0 0 0
2019-08-17 09:00:00 22.1 22 22.3 0 7050 21.9 21.03 23.11 0 0 0
2019-08-17 10:00:00 22.1 22.1 22.3 0 7246 23.99 23.07 25.09 0 0 0
2019-08-17 11:00:00 22.1 22 22.3 0 7254 25.84 25.06 26.74 0 0 0
2019-08-17 12:00:00 22.4 22.2 22.8 0 7274 27.25 26.6 28.01 0 0 0
2019-08-17 13:00:00 23.2 22.9 23.8 0 7274 27.67 26.55 28.47 0 0 0
2019-08-17 14:00:00 24.3 23.8 24.7 0 7254 28.3 27.51 29.19 0 0 0
2019-08-17 15:00:00 25.2 24.9 25.7 0 7246 27.92 27.32 28.67 0 0 0
2019-08-17 16:00:00 25.8 25.6 26 0 7206 26.94 26.66 27.36 0 0 0
2019-08-17 17:00:00 26 25.8 26.2 0 7236 26.91 26.38 27.35 0 0 0
2019-08-17 18:00:00 25.9 25.8 26 0 7108 25.89 24.93 26.68 0 0 0
2019-08-17 19:00:00 25.7 25.6 26 0 7020 24.14 23 24.84 0 0 0